• Join FlightAware (Why Join?)
  • Login
  • US Flag 
01:43AM EDT


 

Airport Tracker/Info


-or-


 

Live Flight TrackerFlight Track Log ✈ MPE9135 ✈ 01-May-2013 ✈ CYWG - CYMM

Flight Track Log - Related Links

Times and Time Zones

All times are in EDT time to prevent confusion due to time zone crossing. See the MPE9135 flight status page for this flight to view local times or setup timezone preferences in your user account.

Time Position Orientation Groundspeed Altitude Reporting Facility
EDT Latitude Longitude Course Direction KTS MPH feet Rate Location/Type
06:39PM 49.9500 -97.3000 327° Northwest 200 230 3,800  Level Winnipeg Center
06:40PM 50.0000 -97.3333 337° Northwest 250 288 5,900 2,640 Climbing Winnipeg Center
06:41PM 50.0667 -97.3500 351° North 260 299 9,100 2,520 Climbing Winnipeg Center
06:42PM 50.1333 -97.4167 327° Northwest 290 334 11,000 2,100 Climbing Winnipeg Center
06:43PM 50.2167 -97.4833 333° Northwest 330 380 13,300 2,520 Climbing Winnipeg Center
06:44PM 50.3000 -97.5667 327° Northwest 350 403 16,100 2,280 Climbing Winnipeg Center
06:45PM 50.3833 -97.6500 327° Northwest 360 414 17,900 2,160 Climbing Winnipeg Center
06:46PM 50.4833 -97.7333 332° Northwest 380 437 20,500 2,340 Climbing Winnipeg Center
06:47PM 50.5667 -97.8167 328° Northwest 390 449 22,600 1,860 Climbing Winnipeg Center
06:48PM 50.6833 -97.8833 340° North 410 472 24,300 1,680 Climbing Winnipeg Center
06:49PM 50.7833 -98.0000 324° Northwest 420 483 26,000 1,560 Climbing Winnipeg Center
06:50PM 50.8833 -98.0833 332° Northwest 440 506 27,500 1,560 Climbing Winnipeg Center
06:51PM 51.0000 -98.1833 332° Northwest 450 518 29,200 1,920 Climbing Winnipeg Center
06:52PM 51.1167 -98.3000 328° Northwest 450 518 31,400 1,740 Climbing Winnipeg Center
06:53PM 51.2167 -98.3833 332° Northwest 440 506 32,700 1,260 Climbing Winnipeg Center
06:54PM 51.3333 -98.5000 328° Northwest 450 518 34,000 1,320 Climbing Winnipeg Center
06:55PM 51.4167 -98.5833 328° Northwest 440 506 35,400 960 Climbing Winnipeg Center
06:56PM 51.5167 -98.6833 328° Northwest 440 506 36,000 300 Climbing Winnipeg Center
06:57PM 51.6333 -98.7667 336° Northwest 440 506 36,000  Level Winnipeg Center
06:58PM 51.7333 -98.8833 324° Northwest 440 506 36,000  Level Winnipeg Center
06:59PM 51.8500 -98.9667 336° Northwest 430 495 36,000  Level Winnipeg Center
07:00PM 51.9500 -99.0833 324° Northwest 440 506 36,000  Level Winnipeg Center
07:01PM 52.0500 -99.1667 333° Northwest 430 495 36,000  Level Winnipeg Center
07:02PM 52.1500 -99.2833 324° Northwest 430 495 36,000  Level Winnipeg Center
07:03PM 52.2667 -99.3667 336° Northwest 430 495 36,000  Level Winnipeg Center
07:04PM 52.3667 -99.4833 325° Northwest 430 495 36,000  Level Winnipeg Center
07:05PM 52.4833 -99.5833 332° Northwest 430 495 36,000  Level Winnipeg Center
07:06PM 52.5833 -99.7000 325° Northwest 430 495 36,000  Level Winnipeg Center
07:07PM 52.6667 -99.7833 329° Northwest 430 495 36,000  Level Winnipeg Center
07:08PM 52.7833 -99.9000 329° Northwest 430 495 36,000  Level Winnipeg Center
07:09PM 52.8833 -99.9833 333° Northwest 440 506 36,000  Level Winnipeg Center
07:10PM 52.9833 -100.1000 325° Northwest 440 506 36,000  Level Winnipeg Center
07:11PM 53.0833 -100.2000 329° Northwest 440 506 36,000  Level Winnipeg Center
07:12PM 53.2000 -100.2833 337° Northwest 440 506 36,000  Level Winnipeg Center
07:13PM 53.3000 -100.4167 321° Northwest 430 495 36,000  Level Winnipeg Center
07:14PM 53.4000 -100.5333 325° Northwest 440 506 36,000  Level Winnipeg Center
07:15PM 53.5000 -100.6167 334° Northwest 430 495 36,000  Level Winnipeg Center
07:16PM 53.6000 -100.7500 322° Northwest 430 495 36,000  Level Winnipeg Center
07:17PM 53.7000 -100.8333 334° Northwest 430 495 36,000  Level Winnipeg Center
07:18PM 53.8167 -100.9333 333° Northwest 440 506 36,000  Level Winnipeg Center
07:19PM 53.9167 -101.0500 326° Northwest 430 495 36,000  Level Winnipeg Center
07:20PM 54.0000 -101.1833 317° Northwest 420 483 36,000  Level Winnipeg Center
07:21PM 54.0333 -101.2667 304° West 410 472 36,000  Level Edmonton Center
07:22PM 54.1167 -101.4167 313° West 410 472 36,000  Level Edmonton Center
07:22PM 54.1333 -101.4833 293° West 410 472 36,000  Level Winnipeg Center
07:23PM 54.2000 -101.6667 302° West 420 483 36,000  Level Winnipeg Center
07:24PM 54.2833 -101.8167 314° West 420 483 36,000  Level Winnipeg Center
07:25PM 54.3333 -101.8833 322° Northwest 410 472 36,000  Level Edmonton Center
07:26PM 54.4000 -102.0500 305° West 410 472 36,000  Level Edmonton Center
07:26PM 54.4333 -102.1167 311° West 420 483 36,000  Level Winnipeg Center
07:27PM 54.5000 -102.2667 307° West 420 483 36,000  Level Winnipeg Center
07:28PM 54.5333 -102.3667 300° West 410 472 36,000  Level Edmonton Center
07:28PM 54.5833 -102.4333 322° Northwest 420 483 36,000  Level Winnipeg Center
07:29PM 54.6333 -102.6000 297° West 410 472 36,000  Level Winnipeg Center
07:30PM 54.7167 -102.7667 311° West 410 472 36,000  Level Winnipeg Center
07:31PM 54.7833 -102.9167 308° West 410 472 36,000  Level Winnipeg Center
07:32PM 54.8500 -103.0667 308° West 410 472 36,000  Level Winnipeg Center
07:33PM 54.9333 -103.2333 311° West 410 472 36,000  Level Winnipeg Center
07:34PM 54.9833 -103.3833 300° West 410 472 36,000  Level Winnipeg Center
07:35PM 55.0667 -103.5667 308° West 410 472 36,000  Level Winnipeg Center
07:36PM 55.1333 -103.7333 305° West 410 472 36,000  Level Winnipeg Center
07:37PM 55.1667 -103.8000 311° West 400 460 36,000  Level Edmonton Center
07:37PM 55.2000 -103.8833 305° West 410 472 36,000  Level Winnipeg Center
07:38PM 55.2667 -104.0500 305° West 410 472 36,000  Level Winnipeg Center
07:39PM 55.3333 -104.1833 311° West 410 472 36,000  Level Winnipeg Center
07:40PM 55.4000 -104.3333 308° West 410 472 36,000  Level Winnipeg Center
07:41PM 55.4333 -104.4500 297° West 400 460 36,000  Level Edmonton Center
07:41PM 55.4500 -104.5333 289° West 400 460 36,000  Level Winnipeg Center
07:42PM 55.5333 -104.6833 315° West 400 460 36,000  Level Winnipeg Center
07:43PM 55.5833 -104.8500 298° West 400 460 36,000  Level Winnipeg Center
07:44PM 55.6667 -104.9833 318° Northwest 400 460 36,000  Level Winnipeg Center
07:45PM 55.7167 -105.1833 294° West 400 460 36,000  Level Winnipeg Center
07:46PM 55.8000 -105.3333 315° West 400 460 36,000  Level Winnipeg Center
07:47PM 55.8500 -105.4667 304° West 400 460 36,000  Level Winnipeg Center
07:48PM 55.9000 -105.6333 298° West 400 460 36,000  Level Winnipeg Center
07:49PM 55.9833 -105.8000 312° West 400 460 36,000  Level Winnipeg Center
07:50PM 56.0333 -105.9667 298° West 390 449 36,000  Level Winnipeg Center
07:51PM 56.1000 -106.1333 306° West 390 449 36,000  Level Winnipeg Center
07:52PM 56.1333 -106.2167 306° West 380 437 36,000  Level Edmonton Center
07:53PM 56.1833 -106.3667 301° West 380 437 36,000  Level Edmonton Center
07:54PM 56.2333 -106.5500 296° West 380 437 36,000  Level Edmonton Center
07:55PM 56.3000 -106.7000 309° West 380 437 36,000  Level Edmonton Center
07:56PM 56.3500 -106.8833 296° West 380 437 36,000  Level Edmonton Center
07:57PM 56.4167 -107.0500 306° West 380 437 36,000  Level Edmonton Center
07:58PM 56.4667 -107.2000 301° West 380 437 36,000  Level Edmonton Center
07:59PM 56.5167 -107.3500 301° West 380 437 36,000  Level Edmonton Center
08:00PM 56.5667 -107.5500 294° West 380 437 36,000  Level Edmonton Center
08:01PM 56.6167 -107.7000 301° West 380 437 36,000  Level Edmonton Center
08:02PM 56.6667 -107.8667 299° West 370 426 36,000  Level Edmonton Center
08:03PM 56.6833 -108.0833 278° West 380 437 36,000  Level Edmonton Center
08:04PM 56.6667 -108.2667 261° West 380 437 36,000  Level Edmonton Center
08:05PM 56.6667 -108.4833 270° West 380 437 36,000 -1,740 Level Edmonton Center
08:06PM 56.6833 -108.6667 279° West 380 437 32,600 -3,600 Descending Edmonton Center
08:07PM 56.6667 -108.8833 262° West 390 449 28,800 -3,420 Descending Edmonton Center
08:08PM 56.6667 -109.0667 270° West 390 449 25,800 -2,820 Descending Edmonton Center
08:09PM 56.6667 -109.2500 270° West 380 437 23,200 -2,640 Descending Edmonton Center
08:10PM 56.6667 -109.4333 270° West 360 414 20,600 -2,460 Descending Edmonton Center
08:11PM 56.6667 -109.6167 270° West 350 403 18,300 -2,280 Descending Edmonton Center
08:12PM 56.6667 -109.7833 270° West 330 380 16,100 -2,340 Descending Edmonton Center
08:13PM 56.6500 -109.9667 261° West 330 380 13,700 -2,520 Descending Edmonton Center
08:14PM 56.6500 -110.1167 270° West 320 368 11,100 -1,740 Descending Edmonton Center
08:15PM 56.6500 -110.2667 270° West 300 345 10,300 -900 Descending Edmonton Center
08:16PM 56.6500 -110.4000 270° West 250 288 9,300 -1,140 Descending Edmonton Center
08:17PM 56.6500 -110.5167 270° West 230 265 8,100 -1,200 Descending Edmonton Center
08:18PM 56.6333 -110.6333 255° West 230 265 6,900 -1,080 Descending Edmonton Center
08:19PM 56.6333 -110.7667 270° West 230 265 6,000 -900 Descending Edmonton Center
08:20PM 56.6333 -110.8500 270° West 210 242 5,100 -1,020 Descending Edmonton Center
08:21PM 56.6333 -110.9833 270° West 210 242 4,000 -1,080 Descending Edmonton Center
08:22PM 56.6333 -111.0667 270° West 190 219 3,000 -900 Descending Edmonton Center
08:23PM 56.6333 -111.1333 270° West 160 184 2,200 -600 Descending Edmonton Center
08:25PM 56.6500 -111.2667 283° West 130 150 1,200 -540 Descending Edmonton Center
08:27PM 56.6500 -111.2167 294° West  Level FlightAware Approximate
08:34PM 56.6533 -111.2219 294° West  Level Estimated
08:35PM 56.6500 -111.2167 294° West  Level FlightAware Approximate
08:36PM 56.6533 -111.2219 294° West  Level Estimated
08:37PM 56.6500 -111.2167 294° West  Level FlightAware Approximate
08:38PM 56.6533 -111.2219 294° West  Level Estimated